sensor_id;sensor_type;location;lat;lon;timestamp;P1;durP1;ratioP1;P2;durP2;ratioP2
24857;SDS011;12935;50.782;6.074;2023-03-01T00:01:44;12.23;;;2.23;;
24857;SDS011;12935;50.782;6.074;2023-03-01T00:04:10;14.37;;;2.60;;
24857;SDS011;12935;50.782;6.074;2023-03-01T00:06:36;127.27;;;17.80;;
24857;SDS011;12935;50.782;6.074;2023-03-01T00:09:02;19.85;;;3.03;;
24857;SDS011;12935;50.782;6.074;2023-03-01T00:11:28;17.83;;;2.87;;
24857;SDS011;12935;50.782;6.074;2023-03-01T00:13:56;29.65;;;4.90;;
24857;SDS011;12935;50.782;6.074;2023-03-01T00:16:25;16.08;;;2.42;;
24857;SDS011;12935;50.782;6.074;2023-03-01T00:18:56;17.40;;;2.78;;
24857;SDS011;12935;50.782;6.074;2023-03-01T00:21:22;18.05;;;2.83;;
24857;SDS011;12935;50.782;6.074;2023-03-01T00:23:48;29.03;;;4.93;;
24857;SDS011;12935;50.782;6.074;2023-03-01T00:26:14;20.67;;;3.17;;
24857;SDS011;12935;50.782;6.074;2023-03-01T00:28:39;37.57;;;5.67;;
24857;SDS011;12935;50.782;6.074;2023-03-01T00:31:06;36.30;;;5.30;;
24857;SDS011;12935;50.782;6.074;2023-03-01T00:33:33;40.05;;;6.70;;
24857;SDS011;12935;50.782;6.074;2023-03-01T00:35:59;29.70;;;4.57;;
24857;SDS011;12935;50.782;6.074;2023-03-01T00:38:25;19.05;;;3.80;;
24857;SDS011;12935;50.782;6.074;2023-03-01T00:40:51;15.30;;;3.30;;
24857;SDS011;12935;50.782;6.074;2023-03-01T00:43:17;28.45;;;4.38;;
24857;SDS011;12935;50.782;6.074;2023-03-01T00:45:44;17.52;;;2.78;;
24857;SDS011;12935;50.782;6.074;2023-03-01T00:48:09;26.33;;;4.57;;
24857;SDS011;12935;50.782;6.074;2023-03-01T00:50:35;22.80;;;5.60;;
24857;SDS011;12935;50.782;6.074;2023-03-01T00:53:00;29.40;;;4.33;;
24857;SDS011;12935;50.782;6.074;2023-03-01T00:55:26;16.93;;;2.47;;
24857;SDS011;12935;50.782;6.074;2023-03-01T00:57:54;22.33;;;3.77;;
24857;SDS011;12935;50.782;6.074;2023-03-01T01:00:20;22.85;;;3.72;;
24857;SDS011;12935;50.782;6.074;2023-03-01T01:02:46;19.70;;;3.00;;
24857;SDS011;12935;50.782;6.074;2023-03-01T01:05:12;15.85;;;2.60;;
24857;SDS011;12935;50.782;6.074;2023-03-01T01:07:38;22.40;;;3.38;;
24857;SDS011;12935;50.782;6.074;2023-03-01T01:10:04;16.23;;;3.30;;
24857;SDS011;12935;50.782;6.074;2023-03-01T01:12:30;25.70;;;4.70;;
24857;SDS011;12935;50.782;6.074;2023-03-01T01:14:56;11.20;;;2.40;;
24857;SDS011;12935;50.782;6.074;2023-03-01T01:17:22;20.03;;;3.60;;
24857;SDS011;12935;50.782;6.074;2023-03-01T01:19:48;19.23;;;3.10;;
24857;SDS011;12935;50.782;6.074;2023-03-01T01:22:13;21.27;;;3.20;;
24857;SDS011;12935;50.782;6.074;2023-03-01T01:24:39;22.47;;;3.37;;
24857;SDS011;12935;50.782;6.074;2023-03-01T01:27:04;18.70;;;3.20;;
24857;SDS011;12935;50.782;6.074;2023-03-01T01:29:31;33.97;;;5.00;;
24857;SDS011;12935;50.782;6.074;2023-03-01T01:31:56;28.10;;;4.95;;
24857;SDS011;12935;50.782;6.074;2023-03-01T01:34:22;12.67;;;2.10;;
24857;SDS011;12935;50.782;6.074;2023-03-01T01:36:51;15.47;;;2.57;;
24857;SDS011;12935;50.782;6.074;2023-03-01T01:39:21;28.08;;;5.55;;
24857;SDS011;12935;50.782;6.074;2023-03-01T01:41:48;19.83;;;3.17;;
24857;SDS011;12935;50.782;6.074;2023-03-01T01:44:17;21.60;;;4.00;;
24857;SDS011;12935;50.782;6.074;2023-03-01T01:49:31;21.55;;;4.32;;
24857;SDS011;12935;50.782;6.074;2023-03-01T01:52:07;28.08;;;5.13;;
24857;SDS011;12935;50.782;6.074;2023-03-01T01:54:42;13.15;;;3.72;;
24857;SDS011;12935;50.782;6.074;2023-03-01T01:57:13;19.10;;;3.17;;
24857;SDS011;12935;50.782;6.074;2023-03-01T01:59:45;16.50;;;3.50;;
24857;SDS011;12935;50.782;6.074;2023-03-01T02:02:15;27.63;;;4.03;;
24857;SDS011;12935;50.782;6.074;2023-03-01T02:04:42;14.10;;;2.33;;
24857;SDS011;12935;50.782;6.074;2023-03-01T02:07:10;10.37;;;2.30;;
24857;SDS011;12935;50.782;6.074;2023-03-01T02:09:42;20.70;;;3.30;;
24857;SDS011;12935;50.782;6.074;2023-03-01T02:12:11;13.68;;;2.20;;
24857;SDS011;12935;50.782;6.074;2023-03-01T02:14:39;14.50;;;2.28;;
24857;SDS011;12935;50.782;6.074;2023-03-01T02:17:04;18.63;;;4.43;;
24857;SDS011;12935;50.782;6.074;2023-03-01T02:22:31;12.35;;;2.17;;
24857;SDS011;12935;50.782;6.074;2023-03-01T02:25:06;16.60;;;2.72;;
24857;SDS011;12935;50.782;6.074;2023-03-01T02:27:38;14.20;;;3.05;;
24857;SDS011;12935;50.782;6.074;2023-03-01T02:30:19;10.40;;;1.77;;
24857;SDS011;12935;50.782;6.074;2023-03-01T02:32:46;13.90;;;2.22;;
24857;SDS011;12935;50.782;6.074;2023-03-01T02:35:14;9.52;;;1.70;;
24857;SDS011;12935;50.782;6.074;2023-03-01T02:37:41;13.80;;;2.20;;
24857;SDS011;12935;50.782;6.074;2023-03-01T02:43:03;19.85;;;3.05;;
24857;SDS011;12935;50.782;6.074;2023-03-01T02:45:33;13.95;;;3.30;;
24857;SDS011;12935;50.782;6.074;2023-03-01T02:47:58;13.00;;;2.13;;
24857;SDS011;12935;50.782;6.074;2023-03-01T02:52:57;15.40;;;2.80;;
24857;SDS011;12935;50.782;6.074;2023-03-01T02:55:31;30.10;;;5.45;;
24857;SDS011;12935;50.782;6.074;2023-03-01T02:57:56;22.67;;;4.67;;
24857;SDS011;12935;50.782;6.074;2023-03-01T03:00:29;22.60;;;4.30;;
24857;SDS011;12935;50.782;6.074;2023-03-01T03:02:59;22.98;;;3.42;;
24857;SDS011;12935;50.782;6.074;2023-03-01T03:05:26;13.93;;;2.13;;
24857;SDS011;12935;50.782;6.074;2023-03-01T03:07:54;16.83;;;2.60;;
24857;SDS011;12935;50.782;6.074;2023-03-01T03:10:22;15.45;;;2.95;;
24857;SDS011;12935;50.782;6.074;2023-03-01T03:12:53;9.55;;;1.63;;
24857;SDS011;12935;50.782;6.074;2023-03-01T03:15:21;10.38;;;1.70;;
24857;SDS011;12935;50.782;6.074;2023-03-01T03:17:51;12.10;;;2.05;;
24857;SDS011;12935;50.782;6.074;2023-03-01T03:20:18;15.68;;;2.55;;
24857;SDS011;12935;50.782;6.074;2023-03-01T03:22:47;13.98;;;2.28;;
24857;SDS011;12935;50.782;6.074;2023-03-01T03:25:14;16.15;;;3.33;;
24857;SDS011;12935;50.782;6.074;2023-03-01T03:27:41;25.88;;;3.95;;
24857;SDS011;12935;50.782;6.074;2023-03-01T03:30:09;15.93;;;3.67;;
24857;SDS011;12935;50.782;6.074;2023-03-01T03:32:40;20.02;;;2.92;;
24857;SDS011;12935;50.782;6.074;2023-03-01T03:35:08;23.20;;;3.65;;
24857;SDS011;12935;50.782;6.074;2023-03-01T03:37:38;26.63;;;3.90;;
24857;SDS011;12935;50.782;6.074;2023-03-01T03:40:24;16.40;;;2.60;;
24857;SDS011;12935;50.782;6.074;2023-03-01T03:42:50;23.13;;;3.92;;
24857;SDS011;12935;50.782;6.074;2023-03-01T03:45:16;25.20;;;3.73;;
24857;SDS011;12935;50.782;6.074;2023-03-01T03:47:42;23.75;;;3.35;;
24857;SDS011;12935;50.782;6.074;2023-03-01T03:50:12;15.43;;;2.38;;
24857;SDS011;12935;50.782;6.074;2023-03-01T03:52:39;16.48;;;2.42;;
24857;SDS011;12935;50.782;6.074;2023-03-01T03:55:05;13.83;;;2.43;;
24857;SDS011;12935;50.782;6.074;2023-03-01T03:57:36;16.33;;;2.50;;
24857;SDS011;12935;50.782;6.074;2023-03-01T04:00:02;18.55;;;3.83;;
24857;SDS011;12935;50.782;6.074;2023-03-01T04:02:42;13.38;;;2.17;;
24857;SDS011;12935;50.782;6.074;2023-03-01T04:05:09;18.92;;;4.15;;
24857;SDS011;12935;50.782;6.074;2023-03-01T04:07:35;14.60;;;3.78;;
24857;SDS011;12935;50.782;6.074;2023-03-01T04:10:05;16.80;;;2.70;;
24857;SDS011;12935;50.782;6.074;2023-03-01T04:12:33;14.60;;;2.35;;
24857;SDS011;12935;50.782;6.074;2023-03-01T04:15:01;10.93;;;2.57;;
24857;SDS011;12935;50.782;6.074;2023-03-01T04:20:11;12.02;;;1.95;;
24857;SDS011;12935;50.782;6.074;2023-03-01T04:22:38;15.40;;;2.38;;
24857;SDS011;12935;50.782;6.074;2023-03-01T04:25:06;13.38;;;1.98;;
24857;SDS011;12935;50.782;6.074;2023-03-01T04:27:35;14.00;;;2.30;;
24857;SDS011;12935;50.782;6.074;2023-03-01T04:30:02;18.98;;;3.65;;
24857;SDS011;12935;50.782;6.074;2023-03-01T04:32:28;14.55;;;2.28;;
24857;SDS011;12935;50.782;6.074;2023-03-01T04:34:54;23.30;;;3.97;;
24857;SDS011;12935;50.782;6.074;2023-03-01T04:37:19;24.53;;;3.70;;
24857;SDS011;12935;50.782;6.074;2023-03-01T04:39:45;16.90;;;3.70;;
24857;SDS011;12935;50.782;6.074;2023-03-01T04:42:14;15.38;;;2.78;;
24857;SDS011;12935;50.782;6.074;2023-03-01T04:44:42;16.15;;;3.28;;
24857;SDS011;12935;50.782;6.074;2023-03-01T04:47:07;13.57;;;2.28;;
24857;SDS011;12935;50.782;6.074;2023-03-01T04:49:33;23.20;;;3.60;;
24857;SDS011;12935;50.782;6.074;2023-03-01T04:51:59;15.23;;;2.50;;
24857;SDS011;12935;50.782;6.074;2023-03-01T04:54:33;18.20;;;2.88;;
24857;SDS011;12935;50.782;6.074;2023-03-01T04:57:00;17.95;;;2.67;;
24857;SDS011;12935;50.782;6.074;2023-03-01T04:59:26;25.05;;;3.55;;
24857;SDS011;12935;50.782;6.074;2023-03-01T05:01:53;18.87;;;2.77;;
24857;SDS011;12935;50.782;6.074;2023-03-01T05:04:23;14.27;;;2.90;;
24857;SDS011;12935;50.782;6.074;2023-03-01T05:06:49;24.83;;;3.63;;
24857;SDS011;12935;50.782;6.074;2023-03-01T05:09:15;12.50;;;2.03;;
24857;SDS011;12935;50.782;6.074;2023-03-01T05:11:40;15.43;;;2.40;;
24857;SDS011;12935;50.782;6.074;2023-03-01T05:14:07;23.75;;;4.07;;
24857;SDS011;12935;50.782;6.074;2023-03-01T05:16:34;16.90;;;2.42;;
24857;SDS011;12935;50.782;6.074;2023-03-01T05:19:01;18.65;;;2.60;;
24857;SDS011;12935;50.782;6.074;2023-03-01T05:21:36;18.20;;;3.10;;
24857;SDS011;12935;50.782;6.074;2023-03-01T05:24:22;19.70;;;4.05;;
24857;SDS011;12935;50.782;6.074;2023-03-01T05:26:48;14.90;;;4.43;;
24857;SDS011;12935;50.782;6.074;2023-03-01T05:29:13;12.97;;;2.40;;
24857;SDS011;12935;50.782;6.074;2023-03-01T05:31:38;20.20;;;3.27;;
24857;SDS011;12935;50.782;6.074;2023-03-01T05:34:04;18.13;;;2.63;;
24857;SDS011;12935;50.782;6.074;2023-03-01T05:36:29;21.37;;;3.67;;
24857;SDS011;12935;50.782;6.074;2023-03-01T05:38:55;11.30;;;1.90;;
24857;SDS011;12935;50.782;6.074;2023-03-01T05:41:20;12.03;;;2.03;;
24857;SDS011;12935;50.782;6.074;2023-03-01T05:43:46;15.07;;;2.30;;
24857;SDS011;12935;50.782;6.074;2023-03-01T05:46:11;17.47;;;2.67;;
24857;SDS011;12935;50.782;6.074;2023-03-01T05:48:40;21.00;;;4.43;;
24857;SDS011;12935;50.782;6.074;2023-03-01T05:51:06;20.10;;;5.43;;
24857;SDS011;12935;50.782;6.074;2023-03-01T05:53:32;19.10;;;3.80;;
24857;SDS011;12935;50.782;6.074;2023-03-01T05:55:58;25.63;;;4.50;;
24857;SDS011;12935;50.782;6.074;2023-03-01T05:58:23;18.90;;;2.93;;
24857;SDS011;12935;50.782;6.074;2023-03-01T06:00:49;12.67;;;2.13;;
24857;SDS011;12935;50.782;6.074;2023-03-01T06:03:15;16.92;;;2.65;;
24857;SDS011;12935;50.782;6.074;2023-03-01T06:05:42;22.15;;;4.72;;
24857;SDS011;12935;50.782;6.074;2023-03-01T06:08:12;18.00;;;2.83;;
24857;SDS011;12935;50.782;6.074;2023-03-01T06:10:38;20.63;;;3.10;;
24857;SDS011;12935;50.782;6.074;2023-03-01T06:13:04;25.70;;;3.65;;
24857;SDS011;12935;50.782;6.074;2023-03-01T06:15:30;50.17;;;7.20;;
24857;SDS011;12935;50.782;6.074;2023-03-01T06:17:55;12.77;;;1.97;;
24857;SDS011;12935;50.782;6.074;2023-03-01T06:20:26;15.70;;;3.13;;
24857;SDS011;12935;50.782;6.074;2023-03-01T06:22:53;17.08;;;2.47;;
24857;SDS011;12935;50.782;6.074;2023-03-01T06:25:20;18.53;;;4.30;;
24857;SDS011;12935;50.782;6.074;2023-03-01T06:27:47;21.85;;;3.15;;
24857;SDS011;12935;50.782;6.074;2023-03-01T06:30:15;22.38;;;3.30;;
24857;SDS011;12935;50.782;6.074;2023-03-01T06:32:42;15.40;;;2.95;;
24857;SDS011;12935;50.782;6.074;2023-03-01T06:35:09;22.25;;;3.35;;
24857;SDS011;12935;50.782;6.074;2023-03-01T06:37:36;10.93;;;1.75;;
24857;SDS011;12935;50.782;6.074;2023-03-01T06:40:02;11.60;;;2.03;;
24857;SDS011;12935;50.782;6.074;2023-03-01T06:42:36;17.08;;;2.78;;
24857;SDS011;12935;50.782;6.074;2023-03-01T06:45:03;16.83;;;6.45;;
24857;SDS011;12935;50.782;6.074;2023-03-01T06:47:30;13.38;;;2.78;;
24857;SDS011;12935;50.782;6.074;2023-03-01T06:49:55;20.13;;;3.03;;
24857;SDS011;12935;50.782;6.074;2023-03-01T06:52:21;20.03;;;3.43;;
24857;SDS011;12935;50.782;6.074;2023-03-01T06:54:46;13.77;;;2.90;;
24857;SDS011;12935;50.782;6.074;2023-03-01T06:57:12;18.77;;;3.93;;
24857;SDS011;12935;50.782;6.074;2023-03-01T06:59:38;32.23;;;4.60;;
24857;SDS011;12935;50.782;6.074;2023-03-01T07:02:04;10.73;;;1.77;;
24857;SDS011;12935;50.782;6.074;2023-03-01T07:04:34;18.60;;;2.72;;
24857;SDS011;12935;50.782;6.074;2023-03-01T07:07:00;15.20;;;2.93;;
24857;SDS011;12935;50.782;6.074;2023-03-01T07:09:26;24.10;;;3.80;;
24857;SDS011;12935;50.782;6.074;2023-03-01T07:11:51;17.27;;;2.67;;
24857;SDS011;12935;50.782;6.074;2023-03-01T07:14:17;20.87;;;3.40;;
24857;SDS011;12935;50.782;6.074;2023-03-01T07:16:42;16.50;;;2.57;;
24857;SDS011;12935;50.782;6.074;2023-03-01T07:19:08;11.90;;;2.07;;
24857;SDS011;12935;50.782;6.074;2023-03-01T07:21:33;14.53;;;3.07;;
24857;SDS011;12935;50.782;6.074;2023-03-01T07:23:59;18.33;;;2.97;;
24857;SDS011;12935;50.782;6.074;2023-03-01T07:26:24;12.20;;;3.70;;
24857;SDS011;12935;50.782;6.074;2023-03-01T07:28:50;12.00;;;1.93;;
24857;SDS011;12935;50.782;6.074;2023-03-01T07:31:15;16.20;;;2.70;;
24857;SDS011;12935;50.782;6.074;2023-03-01T07:33:41;16.13;;;3.37;;
24857;SDS011;12935;50.782;6.074;2023-03-01T07:36:06;11.00;;;1.77;;
24857;SDS011;12935;50.782;6.074;2023-03-01T07:38:32;9.50;;;1.77;;
24857;SDS011;12935;50.782;6.074;2023-03-01T07:40:59;29.40;;;4.60;;
24857;SDS011;12935;50.782;6.074;2023-03-01T07:43:26;17.35;;;3.25;;
24857;SDS011;12935;50.782;6.074;2023-03-01T07:45:57;17.30;;;3.05;;
24857;SDS011;12935;50.782;6.074;2023-03-01T07:48:24;27.90;;;5.28;;
24857;SDS011;12935;50.782;6.074;2023-03-01T07:50:49;12.33;;;2.17;;
24857;SDS011;12935;50.782;6.074;2023-03-01T07:53:18;17.30;;;2.60;;
24857;SDS011;12935;50.782;6.074;2023-03-01T07:55:46;22.73;;;4.50;;
24857;SDS011;12935;50.782;6.074;2023-03-01T07:58:12;16.58;;;2.60;;
24857;SDS011;12935;50.782;6.074;2023-03-01T08:00:37;16.00;;;2.90;;
24857;SDS011;12935;50.782;6.074;2023-03-01T08:03:03;21.17;;;4.20;;
24857;SDS011;12935;50.782;6.074;2023-03-01T08:05:28;30.93;;;4.87;;
24857;SDS011;12935;50.782;6.074;2023-03-01T08:07:54;28.98;;;5.95;;
24857;SDS011;12935;50.782;6.074;2023-03-01T08:10:20;17.37;;;4.60;;
24857;SDS011;12935;50.782;6.074;2023-03-01T08:12:46;13.90;;;2.53;;
24857;SDS011;12935;50.782;6.074;2023-03-01T08:15:11;11.20;;;1.93;;
24857;SDS011;12935;50.782;6.074;2023-03-01T08:17:37;19.30;;;3.10;;
24857;SDS011;12935;50.782;6.074;2023-03-01T08:20:03;26.33;;;4.87;;
24857;SDS011;12935;50.782;6.074;2023-03-01T08:22:31;26.38;;;4.13;;
24857;SDS011;12935;50.782;6.074;2023-03-01T08:24:56;21.33;;;4.23;;
24857;SDS011;12935;50.782;6.074;2023-03-01T08:27:22;20.43;;;4.67;;
24857;SDS011;12935;50.782;6.074;2023-03-01T08:29:47;12.73;;;3.00;;
24857;SDS011;12935;50.782;6.074;2023-03-01T08:32:13;15.57;;;2.47;;
24857;SDS011;12935;50.782;6.074;2023-03-01T08:34:39;25.10;;;4.30;;
24857;SDS011;12935;50.782;6.074;2023-03-01T08:37:04;17.90;;;3.07;;
24857;SDS011;12935;50.782;6.074;2023-03-01T08:39:31;27.20;;;4.70;;
24857;SDS011;12935;50.782;6.074;2023-03-01T08:41:56;8.97;;;2.10;;
24857;SDS011;12935;50.782;6.074;2023-03-01T08:44:22;17.20;;;3.13;;
24857;SDS011;12935;50.782;6.074;2023-03-01T08:46:48;14.57;;;2.43;;
24857;SDS011;12935;50.782;6.074;2023-03-01T08:49:17;27.05;;;4.15;;
24857;SDS011;12935;50.782;6.074;2023-03-01T08:51:45;16.48;;;2.67;;
24857;SDS011;12935;50.782;6.074;2023-03-01T08:54:13;17.92;;;4.47;;
24857;SDS011;12935;50.782;6.074;2023-03-01T08:56:41;19.48;;;3.08;;
24857;SDS011;12935;50.782;6.074;2023-03-01T08:59:07;26.15;;;4.15;;
24857;SDS011;12935;50.782;6.074;2023-03-01T09:01:34;19.00;;;3.45;;
24857;SDS011;12935;50.782;6.074;2023-03-01T09:04:01;15.30;;;2.78;;
24857;SDS011;12935;50.782;6.074;2023-03-01T09:06:26;17.67;;;3.47;;
24857;SDS011;12935;50.782;6.074;2023-03-01T09:08:55;18.02;;;2.80;;
24857;SDS011;12935;50.782;6.074;2023-03-01T09:11:21;29.10;;;6.60;;
24857;SDS011;12935;50.782;6.074;2023-03-01T09:13:48;16.03;;;3.10;;
24857;SDS011;12935;50.782;6.074;2023-03-01T09:16:17;15.95;;;3.75;;
24857;SDS011;12935;50.782;6.074;2023-03-01T09:18:44;16.63;;;3.90;;
24857;SDS011;12935;50.782;6.074;2023-03-01T09:21:14;20.65;;;3.92;;
24857;SDS011;12935;50.782;6.074;2023-03-01T09:23:42;15.00;;;2.83;;
24857;SDS011;12935;50.782;6.074;2023-03-01T09:26:11;26.20;;;4.65;;
24857;SDS011;12935;50.782;6.074;2023-03-01T09:28:38;15.27;;;2.72;;
24857;SDS011;12935;50.782;6.074;2023-03-01T09:31:05;16.92;;;2.90;;
24857;SDS011;12935;50.782;6.074;2023-03-01T09:33:31;12.93;;;2.30;;
24857;SDS011;12935;50.782;6.074;2023-03-01T09:38:27;9.65;;;2.75;;
24857;SDS011;12935;50.782;6.074;2023-03-01T09:40:53;30.77;;;4.80;;
24857;SDS011;12935;50.782;6.074;2023-03-01T09:43:37;19.10;;;3.60;;
24857;SDS011;12935;50.782;6.074;2023-03-01T09:46:07;23.50;;;4.72;;
24857;SDS011;12935;50.782;6.074;2023-03-01T09:48:43;19.92;;;3.45;;
24857;SDS011;12935;50.782;6.074;2023-03-01T09:51:30;16.02;;;3.20;;
24857;SDS011;12935;50.782;6.074;2023-03-01T09:53:58;20.42;;;4.97;;
24857;SDS011;12935;50.782;6.074;2023-03-01T09:56:46;15.50;;;2.88;;
24857;SDS011;12935;50.782;6.074;2023-03-01T09:59:30;30.08;;;4.93;;
24857;SDS011;12935;50.782;6.074;2023-03-01T10:02:21;17.50;;;3.47;;
24857;SDS011;12935;50.782;6.074;2023-03-01T10:04:49;22.67;;;3.78;;
24857;SDS011;12935;50.782;6.074;2023-03-01T10:10:27;16.25;;;2.80;;
24857;SDS011;12935;50.782;6.074;2023-03-01T10:12:53;23.45;;;4.18;;
24857;SDS011;12935;50.782;6.074;2023-03-01T10:15:42;15.95;;;3.28;;
24857;SDS011;12935;50.782;6.074;2023-03-01T10:18:17;14.90;;;3.10;;
24857;SDS011;12935;50.782;6.074;2023-03-01T10:20:50;24.42;;;5.03;;
24857;SDS011;12935;50.782;6.074;2023-03-01T10:23:22;17.15;;;4.43;;
24857;SDS011;12935;50.782;6.074;2023-03-01T10:28:44;13.90;;;3.13;;
24857;SDS011;12935;50.782;6.074;2023-03-01T10:31:30;14.82;;;3.47;;
24857;SDS011;12935;50.782;6.074;2023-03-01T10:34:25;16.80;;;3.45;;
24857;SDS011;12935;50.782;6.074;2023-03-01T10:36:57;18.33;;;3.47;;
24857;SDS011;12935;50.782;6.074;2023-03-01T10:39:27;25.52;;;5.00;;
24857;SDS011;12935;50.782;6.074;2023-03-01T10:49:52;16.60;;;4.10;;
24857;SDS011;12935;50.782;6.074;2023-03-01T10:52:21;13.18;;;3.00;;
24857;SDS011;12935;50.782;6.074;2023-03-01T10:54:55;13.30;;;3.53;;
24857;SDS011;12935;50.782;6.074;2023-03-01T10:57:33;13.35;;;4.25;;
24857;SDS011;12935;50.782;6.074;2023-03-01T11:00:18;14.05;;;4.20;;
24857;SDS011;12935;50.782;6.074;2023-03-01T11:05:24;19.42;;;5.57;;
24857;SDS011;12935;50.782;6.074;2023-03-01T11:12:51;14.38;;;4.15;;
24857;SDS011;12935;50.782;6.074;2023-03-01T11:15:26;24.50;;;5.80;;
24857;SDS011;12935;50.782;6.074;2023-03-01T11:17:53;15.18;;;3.63;;
24857;SDS011;12935;50.782;6.074;2023-03-01T11:20:25;13.45;;;3.75;;
24857;SDS011;12935;50.782;6.074;2023-03-01T11:23:05;20.67;;;6.03;;
24857;SDS011;12935;50.782;6.074;2023-03-01T11:25:36;14.88;;;4.55;;
24857;SDS011;12935;50.782;6.074;2023-03-01T11:28:07;21.55;;;6.60;;
24857;SDS011;12935;50.782;6.074;2023-03-01T11:36:00;19.58;;;5.20;;
24857;SDS011;12935;50.782;6.074;2023-03-01T11:38:31;19.20;;;6.05;;
24857;SDS011;12935;50.782;6.074;2023-03-01T11:41:06;28.13;;;8.55;;
24857;SDS011;12935;50.782;6.074;2023-03-01T11:55:07;19.33;;;6.40;;
24857;SDS011;12935;50.782;6.074;2023-03-01T12:03:37;11.10;;;5.47;;
24857;SDS011;12935;50.782;6.074;2023-03-01T12:07:14;19.67;;;6.90;;
24857;SDS011;12935;50.782;6.074;2023-03-01T12:20:19;16.50;;;7.80;;
24857;SDS011;12935;50.782;6.074;2023-03-01T12:28:52;27.67;;;8.80;;
24857;SDS011;12935;50.782;6.074;2023-03-01T12:42:41;20.90;;;8.60;;
24857;SDS011;12935;50.782;6.074;2023-03-01T12:48:17;17.60;;;8.33;;
24857;SDS011;12935;50.782;6.074;2023-03-01T12:51:07;22.20;;;9.07;;
24857;SDS011;12935;50.782;6.074;2023-03-01T12:53:39;22.73;;;8.87;;
24857;SDS011;12935;50.782;6.074;2023-03-01T12:56:09;18.00;;;9.30;;
24857;SDS011;12935;50.782;6.074;2023-03-01T12:58:46;29.27;;;9.80;;
24857;SDS011;12935;50.782;6.074;2023-03-01T13:01:42;18.87;;;8.60;;
24857;SDS011;12935;50.782;6.074;2023-03-01T13:04:40;21.30;;;9.07;;
24857;SDS011;12935;50.782;6.074;2023-03-01T13:07:25;31.57;;;11.43;;
24857;SDS011;12935;50.782;6.074;2023-03-01T13:17:56;24.40;;;10.80;;
24857;SDS011;12935;50.782;6.074;2023-03-01T13:20:29;32.40;;;10.53;;
24857;SDS011;12935;50.782;6.074;2023-03-01T13:26:09;19.67;;;10.43;;
24857;SDS011;12935;50.782;6.074;2023-03-01T13:28:40;21.27;;;10.80;;
24857;SDS011;12935;50.782;6.074;2023-03-01T13:33:42;22.87;;;13.97;;
24857;SDS011;12935;50.782;6.074;2023-03-01T13:44:24;20.33;;;11.03;;
24857;SDS011;12935;50.782;6.074;2023-03-01T13:52:37;14.70;;;12.70;;
24857;SDS011;12935;50.782;6.074;2023-03-01T13:55:14;33.87;;;15.27;;
24857;SDS011;12935;50.782;6.074;2023-03-01T13:57:51;20.33;;;13.47;;
24857;SDS011;12935;50.782;6.074;2023-03-01T14:00:34;20.90;;;14.33;;
24857;SDS011;12935;50.782;6.074;2023-03-01T14:03:15;24.00;;;15.90;;
24857;SDS011;12935;50.782;6.074;2023-03-01T14:05:41;32.03;;;17.47;;
24857;SDS011;12935;50.782;6.074;2023-03-01T14:08:19;26.93;;;16.83;;
24857;SDS011;12935;50.782;6.074;2023-03-01T14:13:41;27.33;;;18.37;;
24857;SDS011;12935;50.782;6.074;2023-03-01T14:21:44;31.23;;;18.07;;
24857;SDS011;12935;50.782;6.074;2023-03-01T14:24:18;27.07;;;18.80;;
24857;SDS011;12935;50.782;6.074;2023-03-01T14:26:46;36.73;;;19.50;;
24857;SDS011;12935;50.782;6.074;2023-03-01T14:29:26;32.57;;;16.70;;
24857;SDS011;12935;50.782;6.074;2023-03-01T14:32:18;29.53;;;17.07;;
24857;SDS011;12935;50.782;6.074;2023-03-01T14:34:47;27.00;;;16.13;;
24857;SDS011;12935;50.782;6.074;2023-03-01T14:37:33;25.53;;;16.43;;
24857;SDS011;12935;50.782;6.074;2023-03-01T14:40:00;27.03;;;19.17;;
24857;SDS011;12935;50.782;6.074;2023-03-01T14:42:34;29.47;;;18.07;;
24857;SDS011;12935;50.782;6.074;2023-03-01T14:45:01;26.60;;;16.50;;
24857;SDS011;12935;50.782;6.074;2023-03-01T14:50:02;33.77;;;17.10;;
24857;SDS011;12935;50.782;6.074;2023-03-01T14:52:52;25.47;;;13.33;;
24857;SDS011;12935;50.782;6.074;2023-03-01T14:55:29;18.00;;;10.77;;
24857;SDS011;12935;50.782;6.074;2023-03-01T14:58:02;18.20;;;8.50;;
24857;SDS011;12935;50.782;6.074;2023-03-01T15:00:36;23.80;;;7.83;;
24857;SDS011;12935;50.782;6.074;2023-03-01T15:03:13;20.37;;;7.77;;
24857;SDS011;12935;50.782;6.074;2023-03-01T15:05:45;33.15;;;9.82;;
24857;SDS011;12935;50.782;6.074;2023-03-01T15:08:16;22.40;;;7.77;;
24857;SDS011;12935;50.782;6.074;2023-03-01T15:11:05;40.35;;;9.10;;
24857;SDS011;12935;50.782;6.074;2023-03-01T15:13:48;23.38;;;6.85;;
24857;SDS011;12935;50.782;6.074;2023-03-01T15:16:24;25.05;;;7.07;;
24857;SDS011;12935;50.782;6.074;2023-03-01T15:18:51;25.98;;;6.63;;
24857;SDS011;12935;50.782;6.074;2023-03-01T15:21:23;17.13;;;4.97;;
24857;SDS011;12935;50.782;6.074;2023-03-01T15:26:28;19.05;;;5.53;;
24857;SDS011;12935;50.782;6.074;2023-03-01T15:29:10;25.42;;;7.97;;
24857;SDS011;12935;50.782;6.074;2023-03-01T15:31:43;18.90;;;6.22;;
24857;SDS011;12935;50.782;6.074;2023-03-01T15:36:39;21.10;;;5.73;;
24857;SDS011;12935;50.782;6.074;2023-03-01T15:41:58;20.30;;;5.45;;
24857;SDS011;12935;50.782;6.074;2023-03-01T15:47:00;22.83;;;5.53;;
24857;SDS011;12935;50.782;6.074;2023-03-01T15:49:39;31.25;;;6.25;;
24857;SDS011;12935;50.782;6.074;2023-03-01T15:52:11;20.20;;;4.35;;
24857;SDS011;12935;50.782;6.074;2023-03-01T15:54:44;13.52;;;3.47;;
24857;SDS011;12935;50.782;6.074;2023-03-01T15:57:14;15.60;;;4.00;;
24857;SDS011;12935;50.782;6.074;2023-03-01T15:59:42;17.90;;;5.20;;
24857;SDS011;12935;50.782;6.074;2023-03-01T16:02:09;18.00;;;5.55;;
24857;SDS011;12935;50.782;6.074;2023-03-01T16:04:38;21.00;;;4.57;;
24857;SDS011;12935;50.782;6.074;2023-03-01T16:07:04;20.85;;;5.05;;
24857;SDS011;12935;50.782;6.074;2023-03-01T16:09:31;31.33;;;5.47;;
24857;SDS011;12935;50.782;6.074;2023-03-01T16:11:57;20.45;;;4.28;;
24857;SDS011;12935;50.782;6.074;2023-03-01T16:14:23;26.67;;;5.70;;
24857;SDS011;12935;50.782;6.074;2023-03-01T16:16:49;15.33;;;3.93;;
24857;SDS011;12935;50.782;6.074;2023-03-01T16:19:15;14.80;;;3.73;;
24857;SDS011;12935;50.782;6.074;2023-03-01T16:21:41;24.90;;;5.60;;
24857;SDS011;12935;50.782;6.074;2023-03-01T16:24:08;20.30;;;4.03;;
24857;SDS011;12935;50.782;6.074;2023-03-01T16:26:33;17.87;;;4.10;;
24857;SDS011;12935;50.782;6.074;2023-03-01T16:29:00;21.70;;;5.40;;
24857;SDS011;12935;50.782;6.074;2023-03-01T16:31:25;16.47;;;3.80;;
24857;SDS011;12935;50.782;6.074;2023-03-01T16:33:55;14.75;;;4.03;;
24857;SDS011;12935;50.782;6.074;2023-03-01T16:36:26;28.88;;;6.05;;
24857;SDS011;12935;50.782;6.074;2023-03-01T16:38:53;26.45;;;5.50;;
24857;SDS011;12935;50.782;6.074;2023-03-01T16:41:20;20.63;;;5.57;;
24857;SDS011;12935;50.782;6.074;2023-03-01T16:43:47;13.40;;;4.90;;
24857;SDS011;12935;50.782;6.074;2023-03-01T16:46:19;11.63;;;3.45;;
24857;SDS011;12935;50.782;6.074;2023-03-01T16:48:47;64.22;;;10.02;;
24857;SDS011;12935;50.782;6.074;2023-03-01T16:51:13;21.35;;;4.53;;
24857;SDS011;12935;50.782;6.074;2023-03-01T16:53:39;17.23;;;3.40;;
24857;SDS011;12935;50.782;6.074;2023-03-01T16:56:09;22.75;;;4.15;;
24857;SDS011;12935;50.782;6.074;2023-03-01T16:58:36;17.70;;;4.75;;
24857;SDS011;12935;50.782;6.074;2023-03-01T17:01:09;48.88;;;8.00;;
24857;SDS011;12935;50.782;6.074;2023-03-01T17:03:37;28.30;;;4.50;;
24857;SDS011;12935;50.782;6.074;2023-03-01T17:06:04;13.18;;;3.17;;
24857;SDS011;12935;50.782;6.074;2023-03-01T17:08:32;22.92;;;5.60;;